Obrien, California
Current Conditions -  °F | °C
As of 10:53 PM on Wednesday 22 Oct 2014 (Local Time) from KRDD Reporting Station
Light Rain Light Rain  
Wind Chill: 58°   Ceiling: 9000
Heat Index: 58°   Visibility: 10mi
Dew Point: 55°   Wind: 7mph
Humidity: 90%   Direction: 20°NNE
Pressure: 30.03"   Gusts: NA
Location:  40.82°N, 122.32°W
Report Text: KRDD 230553Z AUTO 02006KT 10SM -RA OVC090 14/13 A3003 RMK AO2 RAB09 SLP166 P0001 60001 T01440128 10178 20144 53010
Loading
Personal Weather Stations






























Interactive Weather Map
Tropical Storm Tracking
New forecast layout! Learn more

10-Day Weather Forecast

Advertisements
Track Severe Weather on mobile